createdAt,value
2023-05-01T00:01:06.374Z,68.17
2023-05-01T00:03:33.498Z,67.47
2023-05-01T00:06:02.144Z,68.73
2023-05-01T00:08:28.899Z,68.34
2023-05-01T00:10:55.980Z,68.08
2023-05-01T00:13:24.360Z,68.08
2023-05-01T00:15:51.809Z,68.03
2023-05-01T00:18:18.466Z,69.09
2023-05-01T00:20:44.997Z,68.99
2023-05-01T00:23:12.493Z,68.24
2023-05-01T00:25:39.506Z,68.93
2023-05-01T00:28:06.514Z,67.78
2023-05-01T00:30:34.029Z,68.39
2023-05-01T00:33:01.912Z,68.68
2023-05-01T00:35:30.028Z,68.68
2023-05-01T00:37:56.679Z,68.34
2023-05-01T00:40:23.339Z,68.79
2023-05-01T00:42:49.874Z,68.54
2023-05-01T00:45:16.416Z,68.09
2023-05-01T00:47:43.061Z,68.86
2023-05-01T00:50:10.489Z,68.42
2023-05-01T00:52:37.382Z,68.93
2023-05-01T00:55:05.491Z,68.35
2023-05-01T00:57:32.646Z,69.51
2023-05-01T00:59:59.322Z,69.42
2023-05-01T01:02:27.358Z,68.56
2023-05-01T01:04:54.433Z,69.57
2023-05-01T01:07:36.295Z,69.84
2023-05-01T01:13:14.356Z,69.36
2023-05-01T01:18:30.951Z,69.99
2023-05-01T01:21:15.320Z,70.10
2023-05-01T01:32:15.090Z,70.11
2023-05-01T01:34:49.438Z,70.63
2023-05-01T01:40:01.560Z,69.81
2023-05-01T01:42:36.254Z,70.56
2023-05-01T01:45:10.752Z,71.11
2023-05-01T01:47:41.724Z,70.44
2023-05-01T01:50:11.351Z,72.54
2023-05-01T01:52:41.769Z,71.28
2023-05-01T01:55:11.994Z,71.85
2023-05-01T01:57:40.526Z,71.23
2023-05-01T02:00:11.181Z,71.55
2023-05-01T02:02:39.965Z,72.33
2023-05-01T02:05:08.902Z,72.27
2023-05-01T02:07:39.648Z,72.43
2023-05-01T02:10:09.701Z,71.69
2023-05-01T02:12:36.673Z,73.61
2023-05-01T02:15:05.865Z,73.31
2023-05-01T02:17:33.523Z,72.72
2023-05-01T02:20:01.366Z,72.35
2023-05-01T02:22:29.511Z,72.55
2023-05-01T02:24:58.841Z,71.87
2023-05-01T02:27:32.612Z,72.52
2023-05-01T02:29:59.330Z,72.86
2023-05-01T02:32:26.554Z,71.91
2023-05-01T02:34:53.201Z,71.71
2023-05-01T02:37:20.679Z,71.12
2023-05-01T02:39:47.397Z,72.43
2023-05-01T02:42:16.598Z,72.37
2023-05-01T02:44:53.879Z,72.26
2023-05-01T02:47:23.353Z,71.97
2023-05-01T02:49:51.753Z,71.24
2023-05-01T02:52:19.822Z,71.85
2023-05-01T02:54:47.197Z,71.35
2023-05-01T02:57:14.183Z,71.47
2023-05-01T02:59:41.145Z,71.77
2023-05-01T03:02:07.788Z,72.52
2023-05-01T03:04:34.443Z,71.59
2023-05-01T03:07:01.495Z,71.35
2023-05-01T03:09:28.076Z,71.39
2023-05-01T03:11:54.592Z,72.05
2023-05-01T03:14:21.114Z,72.56
2023-05-01T03:16:47.747Z,71.67
2023-05-01T03:19:14.406Z,71.90
2023-05-01T03:21:40.964Z,72.48
2023-05-01T03:24:08.056Z,71.73
2023-05-01T03:26:34.655Z,71.91
2023-05-01T03:29:01.261Z,72.15
2023-05-01T03:31:27.911Z,71.78
2023-05-01T03:33:54.592Z,72.13
2023-05-01T03:36:22.453Z,72.47
2023-05-01T03:38:49.035Z,72.66
2023-05-01T03:41:15.673Z,72.39
2023-05-01T03:43:42.315Z,72.13
2023-05-01T03:46:08.977Z,71.44
2023-05-01T03:48:36.063Z,72.49
2023-05-01T03:51:02.668Z,72.22
2023-05-01T03:53:29.220Z,72.03
2023-05-01T03:55:55.764Z,71.95
2023-05-01T03:58:23.166Z,72.69
2023-05-01T04:00:51.005Z,72.08
2023-05-01T04:03:17.876Z,72.11
2023-05-01T04:05:44.704Z,72.17
2023-05-01T04:08:11.330Z,72.34
2023-05-01T04:10:37.855Z,72.41
2023-05-01T04:13:05.205Z,72.84
2023-05-01T04:15:31.802Z,72.03
2023-05-01T04:17:58.599Z,72.05
2023-05-01T04:20:25.241Z,72.89
2023-05-01T04:22:52.056Z,72.80
2023-05-01T04:25:18.599Z,72.68
2023-05-01T04:27:45.163Z,73.39
2023-05-01T04:30:11.702Z,72.85
2023-05-01T04:32:38.396Z,72.00
2023-05-01T04:35:05.244Z,72.65
2023-05-01T04:37:31.781Z,72.64
2023-05-01T04:39:58.449Z,73.01
2023-05-01T04:42:31.778Z,72.26
2023-05-01T04:45:01.597Z,73.06
2023-05-01T04:47:28.940Z,72.50
2023-05-01T04:49:55.636Z,73.16
2023-05-01T04:52:22.844Z,72.52
2023-05-01T04:54:49.920Z,72.98
2023-05-01T04:57:16.827Z,72.50
2023-05-01T04:59:43.375Z,73.35
2023-05-01T05:02:10.137Z,72.89
2023-05-01T05:04:36.938Z,71.84
2023-05-01T05:07:03.533Z,72.09
2023-05-01T05:09:30.083Z,72.24
2023-05-01T05:11:56.598Z,72.78
2023-05-01T05:14:23.136Z,73.10
2023-05-01T05:16:50.032Z,73.16
2023-05-01T05:19:16.735Z,73.21
2023-05-01T05:21:43.337Z,72.27
2023-05-01T05:24:09.992Z,73.19
2023-05-01T05:26:36.728Z,73.25
2023-05-01T05:29:03.308Z,73.00
2023-05-01T05:31:30.052Z,73.01
2023-05-01T05:33:56.635Z,72.86
2023-05-01T05:36:23.259Z,72.96
2023-05-01T05:38:49.839Z,72.98
2023-05-01T05:41:17.665Z,72.16
2023-05-01T05:43:44.223Z,72.96
2023-05-01T05:46:11.653Z,72.93
2023-05-01T05:48:38.255Z,72.50
2023-05-01T05:51:04.957Z,72.91
2023-05-01T05:53:31.697Z,72.87
2023-05-01T05:55:58.260Z,73.10
2023-05-01T05:58:24.855Z,73.00
2023-05-01T06:00:53.220Z,71.93
2023-05-01T06:03:20.054Z,72.31
2023-05-01T06:05:47.170Z,72.18
2023-05-01T06:08:14.650Z,71.78
2023-05-01T06:10:43.712Z,71.94
2023-05-01T06:13:13.883Z,73.03
2023-05-01T06:15:41.671Z,73.04
2023-05-01T06:18:08.800Z,72.92
2023-05-01T06:20:36.127Z,72.71
2023-05-01T06:23:03.532Z,72.81
2023-05-01T06:25:30.189Z,72.93
2023-05-01T06:27:56.803Z,72.95
2023-05-01T06:30:23.349Z,72.09
2023-05-01T06:32:50.347Z,72.45
2023-05-01T06:35:17.050Z,72.02
2023-05-01T06:37:43.703Z,72.33
2023-05-01T06:40:10.885Z,71.68
2023-05-01T06:42:38.798Z,72.06
2023-05-01T06:45:07.056Z,72.11
2023-05-01T06:47:33.916Z,72.05
2023-05-01T06:50:02.874Z,72.70
2023-05-01T06:52:31.169Z,72.84
2023-05-01T06:54:58.076Z,72.25
2023-05-01T06:57:24.643Z,71.68
2023-05-01T06:59:51.203Z,71.95
2023-05-01T07:02:17.852Z,71.99
2023-05-01T07:04:45.311Z,71.81
2023-05-01T07:07:12.180Z,72.56
2023-05-01T07:09:38.807Z,71.62
2023-05-01T07:12:06.152Z,72.12
2023-05-01T07:14:34.537Z,71.79
2023-05-01T07:17:01.925Z,71.77
2023-05-01T07:19:28.887Z,71.87
2023-05-01T07:21:55.646Z,71.57
2023-05-01T07:24:22.171Z,72.94
2023-05-01T07:26:48.728Z,71.65
2023-05-01T07:29:16.524Z,72.56
2023-05-01T07:31:43.834Z,72.03
2023-05-01T07:34:10.587Z,72.02
2023-05-01T07:36:37.683Z,71.69
2023-05-01T07:39:04.614Z,72.86
2023-05-01T07:41:31.750Z,72.27
2023-05-01T07:43:59.919Z,72.63
2023-05-01T07:46:27.202Z,71.59
2023-05-01T07:48:53.975Z,71.04
2023-05-01T07:51:20.798Z,70.74
2023-05-01T07:53:48.730Z,71.18
2023-05-01T07:56:16.205Z,70.78
2023-05-01T07:58:43.991Z,69.57
2023-05-01T08:01:11.071Z,69.25
2023-05-01T08:03:37.993Z,68.93
2023-05-01T08:06:05.776Z,68.24
2023-05-01T08:08:32.508Z,68.45
2023-05-01T08:10:59.146Z,67.98
2023-05-01T08:13:25.903Z,66.61
2023-05-01T08:15:53.111Z,66.39
2023-05-01T08:18:21.221Z,65.63
2023-05-01T08:20:48.706Z,65.29
2023-05-01T08:23:16.789Z,64.56
2023-05-01T08:25:43.622Z,64.77
2023-05-01T08:28:10.423Z,65.10
2023-05-01T08:30:36.990Z,65.25
2023-05-01T08:33:03.805Z,65.26
2023-05-01T08:35:30.422Z,65.17
2023-05-01T08:37:58.085Z,64.77
2023-05-01T08:40:26.417Z,65.36
2023-05-01T08:42:55.073Z,65.03
2023-05-01T08:45:24.774Z,64.24
2023-05-01T08:47:54.153Z,64.74
2023-05-01T08:50:22.802Z,63.88
2023-05-01T08:52:51.798Z,64.05
2023-05-01T08:55:21.187Z,64.32
2023-05-01T08:57:48.706Z,64.39
2023-05-01T09:00:19.526Z,63.96
2023-05-01T09:02:48.629Z,64.47
2023-05-01T09:05:17.708Z,64.16
2023-05-01T09:07:46.266Z,63.40
2023-05-01T09:10:15.433Z,63.37
2023-05-01T09:12:44.968Z,63.63
2023-05-01T09:15:12.409Z,63.20
2023-05-01T09:17:40.425Z,62.56
2023-05-01T09:20:07.849Z,62.31
2023-05-01T09:22:35.509Z,62.48
2023-05-01T09:25:03.825Z,62.47
2023-05-01T09:27:35.232Z,61.51
2023-05-01T09:30:01.972Z,60.25
2023-05-01T09:32:28.892Z,59.26
2023-05-01T09:35:08.962Z,59.13
2023-05-01T09:37:35.610Z,59.30
2023-05-01T09:40:12.004Z,59.48
2023-05-01T09:45:19.033Z,60.91
2023-05-01T09:47:46.975Z,60.63
2023-05-01T09:50:32.429Z,59.89
2023-05-01T09:53:01.626Z,59.61
2023-05-01T09:55:28.197Z,58.71
2023-05-01T09:57:54.774Z,58.11
2023-05-01T10:00:22.313Z,58.32
2023-05-01T10:02:50.075Z,57.24
2023-05-01T10:05:18.357Z,57.81
2023-05-01T10:08:02.440Z,57.61
2023-05-01T10:10:29.688Z,57.20
2023-05-01T10:12:56.545Z,56.66
2023-05-01T10:15:26.685Z,57.14
2023-05-01T10:17:54.700Z,57.28
2023-05-01T10:20:21.993Z,55.91
2023-05-01T10:22:49.267Z,56.06
2023-05-01T10:25:17.903Z,55.64
2023-05-01T10:27:44.833Z,55.22
2023-05-01T10:30:11.645Z,54.64
2023-05-01T10:32:41.059Z,55.07
2023-05-01T10:35:12.935Z,55.53
2023-05-01T10:37:47.289Z,54.84
2023-05-01T10:48:54.607Z,55.56
2023-05-01T10:51:25.714Z,55.53
2023-05-01T10:56:51.171Z,55.79
2023-05-01T10:59:17.831Z,55.38
2023-05-01T11:01:45.822Z,55.12
2023-05-01T11:09:42.439Z,54.96
2023-05-01T11:12:11.414Z,54.59
2023-05-01T11:17:46.103Z,54.09
2023-05-01T11:23:17.396Z,52.26
2023-05-01T11:25:46.441Z,52.51
2023-05-01T11:28:19.678Z,52.51
2023-05-01T11:30:46.649Z,53.01
2023-05-01T11:33:14.471Z,53.51
2023-05-01T11:35:41.605Z,53.93
2023-05-01T11:38:18.930Z,54.10
2023-05-01T11:40:46.088Z,54.10
2023-05-01T11:43:12.780Z,55.02
2023-05-01T11:45:39.565Z,55.25
2023-05-01T11:48:15.296Z,54.79
2023-05-01T11:50:41.987Z,56.19
2023-05-01T11:53:15.708Z,56.01
2023-05-01T11:55:42.322Z,57.05
2023-05-01T11:58:09.326Z,57.03
2023-05-01T12:00:38.327Z,56.71
2023-05-01T12:03:07.880Z,56.98
2023-05-01T12:05:37.354Z,57.93
2023-05-01T12:08:23.157Z,57.84
2023-05-01T12:10:52.744Z,57.30
2023-05-01T12:13:19.923Z,57.79
2023-05-01T12:15:48.508Z,57.02
2023-05-01T12:18:16.317Z,56.71
2023-05-01T12:20:48.762Z,55.99
2023-05-01T12:23:16.359Z,56.19
2023-05-01T12:25:44.938Z,56.60
2023-05-01T12:28:15.739Z,56.73
2023-05-01T12:30:43.504Z,56.46
2023-05-01T12:35:50.731Z,55.58
2023-05-01T12:38:19.231Z,56.26
2023-05-01T12:40:58.577Z,55.82
2023-05-01T12:43:34.603Z,55.80
2023-05-01T12:46:02.140Z,56.11
2023-05-01T12:48:30.086Z,54.87
2023-05-01T12:50:57.289Z,54.81
2023-05-01T12:53:26.173Z,54.82
2023-05-01T12:55:55.580Z,54.09
2023-05-01T12:58:23.060Z,54.09
2023-05-01T13:00:53.092Z,54.48
2023-05-01T13:03:26.227Z,52.94
2023-05-01T13:05:56.438Z,53.47
2023-05-01T13:08:29.350Z,53.44
2023-05-01T13:10:57.545Z,53.60
2023-05-01T13:13:26.924Z,53.17
2023-05-01T13:15:53.852Z,53.43
2023-05-01T13:18:20.606Z,53.29
2023-05-01T13:20:47.191Z,52.90
2023-05-01T13:23:13.930Z,52.56
2023-05-01T13:25:40.696Z,53.04
2023-05-01T13:28:07.925Z,53.20
2023-05-01T13:30:34.894Z,53.08
2023-05-01T13:33:02.024Z,53.30
2023-05-01T13:35:28.684Z,52.89
2023-05-01T13:37:55.419Z,51.87
2023-05-01T13:40:26.076Z,51.21
2023-05-01T13:42:53.931Z,50.46
2023-05-01T13:45:21.886Z,50.47
2023-05-01T13:47:51.985Z,50.79
2023-05-01T13:50:18.896Z,51.41
2023-05-01T13:52:46.069Z,51.03
2023-05-01T13:55:13.731Z,50.94
2023-05-01T13:57:42.426Z,50.83
2023-05-01T14:00:14.287Z,50.48
2023-05-01T14:02:47.686Z,51.19
2023-05-01T14:05:15.978Z,51.15
2023-05-01T14:07:53.534Z,51.56
2023-05-01T14:10:21.735Z,52.12
2023-05-01T14:12:48.273Z,51.97
2023-05-01T14:15:15.117Z,52.39
2023-05-01T14:17:41.891Z,52.48
2023-05-01T14:20:08.920Z,52.52
2023-05-01T14:22:44.070Z,51.85
2023-05-01T14:28:08.301Z,51.40
2023-05-01T14:30:38.475Z,51.51
2023-05-01T14:33:11.283Z,52.04
2023-05-01T14:35:47.814Z,51.83
2023-05-01T14:38:16.651Z,52.27
2023-05-01T14:40:44.641Z,51.61
2023-05-01T14:43:16.324Z,51.10
2023-05-01T14:45:43.785Z,51.67
2023-05-01T14:48:11.750Z,50.90
2023-05-01T14:50:38.945Z,51.14
2023-05-01T14:53:06.517Z,51.14
2023-05-01T14:55:34.816Z,51.98
2023-05-01T14:58:02.057Z,51.11
2023-05-01T15:00:28.600Z,50.84
2023-05-01T15:02:56.481Z,50.72
2023-05-01T15:05:24.713Z,51.41
2023-05-01T15:07:51.448Z,51.79
2023-05-01T15:10:18.090Z,52.04
2023-05-01T15:12:44.701Z,51.65
2023-05-01T15:15:11.579Z,52.23
2023-05-01T15:17:38.386Z,51.43
2023-05-01T15:20:06.472Z,52.13
2023-05-01T15:22:33.073Z,53.01
2023-05-01T15:24:59.901Z,52.95
2023-05-01T15:27:27.567Z,53.08
2023-05-01T15:29:54.183Z,53.07
2023-05-01T15:32:20.984Z,53.83
2023-05-01T15:34:47.678Z,53.47
2023-05-01T15:37:14.228Z,53.62
2023-05-01T15:39:40.784Z,52.74
2023-05-01T15:42:07.356Z,52.97
2023-05-01T15:44:33.902Z,52.35
2023-05-01T15:47:00.466Z,52.53
2023-05-01T15:49:27.087Z,52.78
2023-05-01T15:51:54.569Z,52.45
2023-05-01T15:54:21.568Z,52.94
2023-05-01T15:56:48.109Z,52.11
2023-05-01T15:59:14.758Z,52.24
2023-05-01T16:01:41.466Z,52.98
2023-05-01T16:04:08.276Z,52.12
2023-05-01T16:06:35.602Z,52.29
2023-05-01T16:09:02.818Z,52.98
2023-05-01T16:11:30.497Z,53.11
2023-05-01T16:13:57.243Z,52.05
2023-05-01T16:16:26.543Z,51.65
2023-05-01T16:18:55.901Z,51.97
2023-05-01T16:21:24.064Z,51.57
2023-05-01T16:23:53.022Z,52.46
2023-05-01T16:26:23.042Z,51.88
2023-05-01T16:28:50.064Z,51.84
2023-05-01T16:31:27.091Z,51.87
2023-05-01T16:33:54.794Z,52.10
2023-05-01T16:36:21.505Z,52.02
2023-05-01T16:38:48.335Z,51.21
2023-05-01T16:41:16.558Z,51.32
2023-05-01T16:43:44.085Z,52.00
2023-05-01T16:46:11.290Z,51.85
2023-05-01T16:48:39.023Z,52.18
2023-05-01T16:51:06.595Z,51.74
2023-05-01T16:53:33.249Z,52.65
2023-05-01T16:55:59.960Z,52.87
2023-05-01T16:58:27.626Z,52.02
2023-05-01T17:00:55.812Z,52.11
2023-05-01T17:03:22.431Z,52.10
2023-05-01T17:05:48.958Z,52.15
2023-05-01T17:08:15.712Z,51.64
2023-05-01T17:10:43.764Z,52.13
2023-05-01T17:13:10.994Z,52.57
2023-05-01T17:15:37.491Z,52.08
2023-05-01T17:18:04.311Z,52.36
2023-05-01T17:20:31.489Z,52.38
2023-05-01T17:22:58.023Z,51.65
2023-05-01T17:25:24.652Z,52.64
2023-05-01T17:27:51.233Z,52.66
2023-05-01T17:30:18.506Z,53.43
2023-05-01T17:32:45.284Z,52.83
2023-05-01T17:35:11.922Z,53.04
2023-05-01T17:37:39.977Z,53.10
2023-05-01T17:40:08.984Z,53.43
2023-05-01T17:42:36.965Z,52.90
2023-05-01T17:45:07.308Z,53.90
2023-05-01T17:47:34.467Z,53.71
2023-05-01T17:50:04.495Z,53.79
2023-05-01T17:52:31.258Z,53.81
2023-05-01T17:54:57.886Z,54.54
2023-05-01T17:57:24.471Z,54.24
2023-05-01T17:59:51.049Z,54.71
2023-05-01T18:02:17.807Z,54.70
2023-05-01T18:04:44.469Z,55.17
2023-05-01T18:07:11.192Z,55.27
2023-05-01T18:09:37.770Z,55.57
2023-05-01T18:12:04.663Z,55.24
2023-05-01T18:14:31.325Z,55.36
2023-05-01T18:16:58.023Z,55.86
2023-05-01T18:19:24.645Z,55.72
2023-05-01T18:21:51.307Z,56.11
2023-05-01T18:24:17.875Z,56.53
2023-05-01T18:26:44.432Z,56.11
2023-05-01T18:29:10.963Z,56.33
2023-05-01T18:31:38.328Z,56.41
2023-05-01T18:34:06.526Z,56.24
2023-05-01T18:36:33.350Z,56.65
2023-05-01T18:39:01.871Z,56.43
2023-05-01T18:41:28.461Z,56.98
2023-05-01T18:43:57.834Z,57.42
2023-05-01T18:46:24.856Z,57.25
2023-05-01T18:48:51.460Z,56.98
2023-05-01T18:51:18.168Z,57.59
2023-05-01T18:53:44.767Z,57.74
2023-05-01T18:56:11.444Z,57.65
2023-05-01T18:58:39.840Z,57.61
2023-05-01T19:01:06.841Z,58.17
2023-05-01T19:03:33.537Z,57.86
2023-05-01T19:06:00.167Z,58.13
2023-05-01T19:08:27.023Z,58.62
2023-05-01T19:10:53.533Z,58.89
2023-05-01T19:13:20.204Z,59.03
2023-05-01T19:15:46.791Z,58.62
2023-05-01T19:18:13.419Z,58.79
2023-05-01T19:20:40.074Z,58.88
2023-05-01T19:23:06.700Z,59.24
2023-05-01T19:25:34.259Z,59.12
2023-05-01T19:28:02.126Z,59.17
2023-05-01T19:30:28.801Z,59.49
2023-05-01T19:32:55.550Z,59.71
2023-05-01T19:35:22.103Z,59.29
2023-05-01T19:37:54.223Z,59.74
2023-05-01T19:40:20.898Z,60.18
2023-05-01T19:42:47.626Z,59.47
2023-05-01T19:45:17.075Z,60.17
2023-05-01T19:47:44.456Z,60.79
2023-05-01T19:50:11.626Z,60.91
2023-05-01T19:52:38.214Z,60.23
2023-05-01T19:55:05.509Z,60.88
2023-05-01T19:57:32.232Z,60.97
2023-05-01T19:59:59.204Z,61.03
2023-05-01T20:02:26.016Z,60.31
2023-05-01T20:04:52.652Z,61.18
2023-05-01T20:07:19.248Z,61.41
2023-05-01T20:09:46.035Z,60.85
2023-05-01T20:12:12.702Z,61.35
2023-05-01T20:14:39.239Z,61.39
2023-05-01T20:17:07.396Z,61.22
2023-05-01T20:19:34.141Z,61.78
2023-05-01T20:22:00.831Z,61.46
2023-05-01T20:24:27.382Z,61.70
2023-05-01T20:26:55.802Z,61.57
2023-05-01T20:29:22.549Z,62.03
2023-05-01T20:31:49.774Z,62.03
2023-05-01T20:34:16.292Z,61.86
2023-05-01T20:36:43.267Z,61.87
2023-05-01T20:39:09.895Z,62.00
2023-05-01T20:41:36.663Z,62.30
2023-05-01T20:44:03.724Z,62.99
2023-05-01T20:46:30.478Z,63.36
2023-05-01T20:48:57.178Z,62.57
2023-05-01T20:51:23.748Z,63.02
2023-05-01T20:53:50.544Z,63.20
2023-05-01T20:56:17.399Z,63.25
2023-05-01T20:58:44.142Z,64.01
2023-05-01T21:01:11.192Z,62.86
2023-05-01T21:03:38.373Z,63.80
2023-05-01T21:06:05.027Z,63.65
2023-05-01T21:08:33.278Z,63.83
2023-05-01T21:11:01.801Z,62.99
2023-05-01T21:13:28.556Z,63.60
2023-05-01T21:15:55.327Z,63.64
2023-05-01T21:18:22.184Z,64.35
2023-05-01T21:20:48.944Z,63.13
2023-05-01T21:23:17.451Z,64.51
2023-05-01T21:25:44.446Z,63.59
2023-05-01T21:28:12.703Z,64.69
2023-05-01T21:30:39.777Z,64.12
2023-05-01T21:33:11.625Z,64.67
2023-05-01T21:35:41.877Z,64.54
2023-05-01T21:38:08.846Z,64.55
2023-05-01T21:40:37.663Z,64.77
2023-05-01T21:43:05.865Z,64.08
2023-05-01T21:45:34.369Z,64.81
2023-05-01T21:48:01.040Z,64.49
2023-05-01T21:50:29.359Z,63.83
2023-05-01T21:52:55.990Z,64.21
2023-05-01T21:55:26.037Z,64.77
2023-05-01T21:57:53.406Z,63.81
2023-05-01T22:00:21.043Z,64.64
2023-05-01T22:02:49.719Z,63.95
2023-05-01T22:05:19.858Z,64.42
2023-05-01T22:07:47.042Z,64.32
2023-05-01T22:10:15.806Z,64.13
2023-05-01T22:12:43.118Z,64.18
2023-05-01T22:15:11.264Z,64.61
2023-05-01T22:17:38.759Z,64.93
2023-05-01T22:20:07.237Z,64.43
2023-05-01T22:22:36.252Z,64.01
2023-05-01T22:25:03.986Z,64.30
2023-05-01T22:27:31.219Z,64.90
2023-05-01T22:29:57.866Z,64.28
2023-05-01T22:32:24.848Z,64.55
2023-05-01T22:34:51.491Z,65.60
2023-05-01T22:37:19.595Z,66.21
2023-05-01T22:39:46.467Z,66.21
2023-05-01T22:42:13.159Z,66.41
2023-05-01T22:44:39.832Z,66.60
2023-05-01T22:47:07.097Z,66.27
2023-05-01T22:49:33.677Z,65.41
2023-05-01T22:52:00.268Z,65.61
2023-05-01T22:54:26.880Z,66.78
2023-05-01T22:56:53.532Z,67.09
2023-05-01T22:59:21.746Z,66.63
2023-05-01T23:01:48.702Z,66.11
2023-05-01T23:04:15.857Z,67.44
2023-05-01T23:06:43.345Z,67.37
2023-05-01T23:09:10.031Z,67.05
2023-05-01T23:11:36.758Z,68.30
2023-05-01T23:14:03.396Z,68.61
2023-05-01T23:16:36.593Z,68.46
2023-05-01T23:19:03.664Z,68.30
2023-05-01T23:21:31.217Z,68.67
2023-05-01T23:23:57.778Z,67.85
2023-05-01T23:26:26.616Z,67.73
2023-05-01T23:28:53.640Z,68.44
2023-05-01T23:31:26.276Z,67.85
2023-05-01T23:33:53.460Z,68.17
2023-05-01T23:36:20.207Z,68.47
2023-05-01T23:38:47.382Z,67.60
2023-05-01T23:41:15.065Z,68.10
2023-05-01T23:43:42.081Z,67.33
2023-05-01T23:46:09.172Z,67.33
2023-05-01T23:48:36.290Z,67.47
2023-05-01T23:51:03.380Z,68.20
2023-05-01T23:53:30.189Z,67.89
2023-05-01T23:55:56.946Z,67.79
2023-05-01T23:58:24.278Z,68.20
